createdAt,value
2022-12-01T00:01:01.086Z,-8.21
2022-12-01T00:03:30.906Z,-8.22
2022-12-01T00:06:02.614Z,-8.26
2022-12-01T00:08:30.231Z,-8.41
2022-12-01T00:11:08.809Z,-8.27
2022-12-01T00:13:36.950Z,-8.21
2022-12-01T00:16:15.201Z,-8.23
2022-12-01T00:18:42.583Z,-8.24
2022-12-01T00:21:17.523Z,-8.24
2022-12-01T00:23:47.426Z,-8.21
2022-12-01T00:26:15.952Z,-8.14
2022-12-01T00:28:43.398Z,-8.13
2022-12-01T00:31:12.138Z,-8.12
2022-12-01T00:33:39.804Z,-8.09
2022-12-01T00:36:07.322Z,-8.13
2022-12-01T00:38:34.513Z,-8.12
2022-12-01T00:41:01.788Z,-8.10
2022-12-01T00:43:28.865Z,-8.14
2022-12-01T00:46:22.498Z,-8.12
2022-12-01T00:48:49.629Z,-8.25
2022-12-01T00:51:16.656Z,-8.30
2022-12-01T00:53:43.717Z,-8.33
2022-12-01T00:56:10.828Z,-8.31
2022-12-01T00:58:37.887Z,-8.37
2022-12-01T01:01:05.159Z,-8.38
2022-12-01T01:03:32.990Z,-8.36
2022-12-01T01:06:08.975Z,-8.35
2022-12-01T01:08:36.251Z,-8.28
2022-12-01T01:11:04.193Z,-8.25
2022-12-01T01:13:32.095Z,-8.27
2022-12-01T01:16:08.644Z,-8.37
2022-12-01T01:18:35.647Z,-8.50
2022-12-01T01:21:06.346Z,-8.42
2022-12-01T01:23:33.838Z,-8.36
2022-12-01T01:26:06.355Z,-8.46
2022-12-01T01:28:33.407Z,-8.39
2022-12-01T01:31:04.483Z,-8.41
2022-12-01T01:33:31.554Z,-8.47
2022-12-01T01:36:02.479Z,-8.51
2022-12-01T01:38:30.405Z,-8.48
2022-12-01T01:40:57.806Z,-8.51
2022-12-01T01:44:01.952Z,-8.52
2022-12-01T01:46:33.949Z,-8.48
2022-12-01T01:49:02.298Z,-8.48
2022-12-01T01:51:39.777Z,-8.49
2022-12-01T01:54:17.480Z,-8.63
2022-12-01T02:01:15.883Z,-8.59
2022-12-01T02:03:45.492Z,-8.59
2022-12-01T02:06:12.629Z,-8.64
2022-12-01T02:08:39.713Z,-8.60
2022-12-01T02:11:48.439Z,-8.42
2022-12-01T02:14:54.526Z,-8.39
2022-12-01T02:17:41.392Z,-8.32
2022-12-01T02:20:11.631Z,-8.24
2022-12-01T02:23:12.910Z,-8.33
2022-12-01T02:26:02.226Z,-8.36
2022-12-01T02:28:35.118Z,-8.36
2022-12-01T02:31:17.290Z,-8.38
2022-12-01T02:33:53.465Z,-8.36
2022-12-01T02:36:41.023Z,-8.37
2022-12-01T02:39:17.532Z,-8.32
2022-12-01T02:41:53.261Z,-8.46
2022-12-01T02:44:36.310Z,-8.40
2022-12-01T02:47:11.841Z,-8.36
2022-12-01T02:49:49.617Z,-8.30
2022-12-01T02:52:19.017Z,-8.42
2022-12-01T02:54:48.499Z,-8.39
2022-12-01T02:57:17.117Z,-8.36
2022-12-01T02:59:50.180Z,-8.41
2022-12-01T03:02:42.557Z,-8.43
2022-12-01T03:05:15.433Z,-8.47
2022-12-01T03:07:58.665Z,-8.48
2022-12-01T03:10:41.593Z,-8.46
2022-12-01T03:13:27.330Z,-8.48
2022-12-01T03:16:17.803Z,-8.43
2022-12-01T03:18:47.541Z,-8.53
2022-12-01T03:21:23.702Z,-8.54
2022-12-01T03:24:01.101Z,-8.48
2022-12-01T03:26:32.841Z,-8.48
2022-12-01T03:29:06.546Z,-8.54
2022-12-01T03:31:39.651Z,-8.56
2022-12-01T03:34:15.501Z,-8.53
2022-12-01T03:36:47.804Z,-8.58
2022-12-01T03:39:21.459Z,-8.59
2022-12-01T03:42:04.132Z,-8.62
2022-12-01T03:44:53.596Z,-8.60
2022-12-01T03:47:23.820Z,-8.58
2022-12-01T03:49:53.615Z,-8.60
2022-12-01T03:52:40.519Z,-8.48
2022-12-01T03:55:17.487Z,-8.53
2022-12-01T03:57:50.301Z,-8.53
2022-12-01T04:00:18.939Z,-8.53
2022-12-01T04:02:46.110Z,-8.49
2022-12-01T04:05:13.134Z,-8.52
2022-12-01T04:07:40.720Z,-8.52
2022-12-01T04:10:08.441Z,-8.50
2022-12-01T04:12:35.585Z,-8.47
2022-12-01T04:15:12.527Z,-8.50
2022-12-01T04:17:43.365Z,-8.53
2022-12-01T04:20:16.226Z,-8.48
2022-12-01T04:22:43.647Z,-8.44
2022-12-01T04:25:11.665Z,-8.38
2022-12-01T04:27:39.989Z,-8.28
2022-12-01T04:30:08.317Z,-8.34
2022-12-01T04:32:40.057Z,-8.34
2022-12-01T04:35:09.130Z,-8.36
2022-12-01T04:37:36.179Z,-8.37
2022-12-01T04:40:04.086Z,-8.37
2022-12-01T04:42:31.379Z,-8.32
2022-12-01T04:44:58.415Z,-8.35
2022-12-01T04:47:25.465Z,-8.30
2022-12-01T04:49:52.613Z,-8.23
2022-12-01T04:52:19.512Z,-8.29
2022-12-01T04:54:46.546Z,-8.32
2022-12-01T04:57:26.192Z,-8.34
2022-12-01T04:59:53.477Z,-8.41
2022-12-01T05:02:20.558Z,-8.33
2022-12-01T05:04:48.446Z,-8.28
2022-12-01T05:07:15.554Z,-8.25
2022-12-01T05:09:42.645Z,-8.21
2022-12-01T05:12:09.699Z,-8.18
2022-12-01T05:14:37.022Z,-8.21
2022-12-01T05:17:06.849Z,-8.25
2022-12-01T05:19:54.251Z,-8.24
2022-12-01T05:22:36.709Z,-8.12
2022-12-01T05:25:08.539Z,-8.15
2022-12-01T05:27:38.075Z,-8.15
2022-12-01T05:30:06.032Z,-8.05
2022-12-01T05:32:32.932Z,-8.07
2022-12-01T05:34:59.855Z,-8.01
2022-12-01T05:37:26.838Z,-8.02
2022-12-01T05:39:53.862Z,-8.02
2022-12-01T05:42:21.004Z,-8.09
2022-12-01T05:44:48.000Z,-8.02
2022-12-01T05:47:15.098Z,-7.97
2022-12-01T05:49:42.100Z,-7.94
2022-12-01T05:52:09.102Z,-7.88
2022-12-01T05:54:36.098Z,-7.89
2022-12-01T05:57:03.114Z,-7.83
2022-12-01T05:59:30.067Z,-7.78
2022-12-01T06:01:59.514Z,-7.59
2022-12-01T06:04:26.523Z,-7.50
2022-12-01T06:06:53.534Z,-7.35
2022-12-01T06:09:20.543Z,-7.25
2022-12-01T06:11:52.264Z,-7.25
2022-12-01T06:14:19.675Z,-7.20
2022-12-01T06:16:46.610Z,-7.09
2022-12-01T06:19:13.741Z,-6.79
2022-12-01T06:21:40.775Z,-6.65
2022-12-01T06:24:08.032Z,-6.44
2022-12-01T06:26:34.935Z,-6.36
2022-12-01T06:29:01.884Z,-6.35
2022-12-01T06:31:31.516Z,-6.35
2022-12-01T06:33:58.469Z,-6.37
2022-12-01T06:36:25.434Z,-6.32
2022-12-01T06:38:52.441Z,-6.15
2022-12-01T06:41:24.509Z,-6.10
2022-12-01T06:43:51.503Z,-6.05
2022-12-01T06:46:18.688Z,-5.97
2022-12-01T06:48:48.448Z,-5.80
2022-12-01T06:51:15.315Z,-5.71
2022-12-01T06:53:42.389Z,-5.74
2022-12-01T06:56:09.464Z,-5.63
2022-12-01T06:58:36.692Z,-5.40
2022-12-01T07:01:11.041Z,-5.21
2022-12-01T07:03:39.024Z,-5.20
2022-12-01T07:06:06.551Z,-5.04
2022-12-01T07:08:33.857Z,-4.88
2022-12-01T07:11:05.576Z,-4.76
2022-12-01T07:13:33.940Z,-4.56
2022-12-01T07:16:04.962Z,-4.37
2022-12-01T07:18:33.233Z,-4.31
2022-12-01T07:21:22.148Z,-4.37
2022-12-01T07:23:49.182Z,-4.24
2022-12-01T07:26:18.217Z,-4.06
2022-12-01T07:28:45.727Z,-3.88
2022-12-01T07:31:15.899Z,-3.57
2022-12-01T07:33:43.368Z,-3.23
2022-12-01T07:36:14.182Z,-3.25
2022-12-01T07:38:42.046Z,-3.17
2022-12-01T07:41:21.975Z,-3.11
2022-12-01T07:43:50.913Z,-2.68
2022-12-01T07:46:23.695Z,-2.37
2022-12-01T07:48:52.893Z,-2.00
2022-12-01T07:51:20.820Z,-1.91
2022-12-01T07:53:51.327Z,-1.81
2022-12-01T07:56:19.207Z,-1.47
2022-12-01T07:58:46.124Z,-0.94
2022-12-01T08:01:19.518Z,-0.51
2022-12-01T08:03:51.571Z,0.34
2022-12-01T08:06:20.749Z,1.27
2022-12-01T08:08:47.927Z,1.73
2022-12-01T08:11:23.743Z,2.10
2022-12-01T08:13:52.340Z,2.58
2022-12-01T08:16:21.381Z,3.05
2022-12-01T08:18:49.065Z,3.11
2022-12-01T08:21:19.486Z,3.17
2022-12-01T08:23:47.268Z,2.80
2022-12-01T08:26:16.934Z,2.54
2022-12-01T08:28:44.844Z,2.37
2022-12-01T08:31:19.716Z,2.41
2022-12-01T08:33:47.968Z,2.28
2022-12-01T08:36:18.576Z,2.37
2022-12-01T08:38:50.508Z,2.63
2022-12-01T08:41:18.211Z,2.84
2022-12-01T08:44:01.651Z,2.24
2022-12-01T08:46:33.479Z,1.71
2022-12-01T08:49:01.701Z,0.88
2022-12-01T08:51:31.383Z,0.59
2022-12-01T08:53:59.912Z,0.18
2022-12-01T08:56:36.344Z,-0.14
2022-12-01T08:59:04.696Z,-0.22
2022-12-01T09:01:33.211Z,-0.52
2022-12-01T09:04:11.215Z,-0.68
2022-12-01T09:06:46.585Z,-0.86
2022-12-01T09:09:18.937Z,-1.20
2022-12-01T09:11:47.076Z,-1.61
2022-12-01T09:14:16.444Z,-1.66
2022-12-01T09:16:47.190Z,-1.74
2022-12-01T09:19:24.267Z,-1.97
2022-12-01T09:21:52.005Z,-2.07
2022-12-01T09:24:19.006Z,-2.20
2022-12-01T09:26:48.400Z,-2.33
2022-12-01T09:29:16.925Z,-2.46
2022-12-01T09:31:44.481Z,-2.63
2022-12-01T09:34:19.104Z,-2.64
2022-12-01T09:36:49.682Z,-2.65
2022-12-01T09:39:21.716Z,-2.78
2022-12-01T09:42:09.283Z,-2.84
2022-12-01T09:44:43.035Z,-2.83
2022-12-01T09:47:26.486Z,-2.95
2022-12-01T09:50:14.298Z,-3.07
2022-12-01T09:52:47.822Z,-3.19
2022-12-01T09:55:19.098Z,-3.31
2022-12-01T09:57:52.570Z,-3.34
2022-12-01T10:00:23.152Z,-3.22
2022-12-01T10:03:06.101Z,-3.23
2022-12-01T10:06:25.250Z,-3.23
2022-12-01T10:09:16.329Z,-3.24
2022-12-01T10:11:47.050Z,-3.11
2022-12-01T10:14:20.100Z,-3.08
2022-12-01T10:17:28.648Z,-2.09
2022-12-01T10:20:14.299Z,-0.95
2022-12-01T10:23:02.899Z,0.06
2022-12-01T10:25:51.296Z,0.31
2022-12-01T10:28:37.730Z,0.53
2022-12-01T10:31:23.572Z,0.80
2022-12-01T10:33:59.807Z,1.34
2022-12-01T10:36:30.971Z,1.66
2022-12-01T10:39:01.312Z,1.64
2022-12-01T10:41:32.815Z,1.99
2022-12-01T10:44:03.339Z,2.24
2022-12-01T10:46:42.225Z,2.47
2022-12-01T10:49:12.469Z,2.59
2022-12-01T10:51:54.276Z,2.19
2022-12-01T10:54:23.778Z,1.47
2022-12-01T10:57:10.193Z,0.77
2022-12-01T11:00:25.525Z,0.21
2022-12-01T11:03:56.233Z,-0.43
2022-12-01T11:06:29.547Z,-0.77
2022-12-01T11:09:01.927Z,-0.82
2022-12-01T11:11:37.240Z,-1.00
2022-12-01T11:14:46.807Z,-1.17
2022-12-01T11:17:29.543Z,-1.45
2022-12-01T11:19:57.148Z,-1.47
2022-12-01T11:22:31.878Z,-1.60
2022-12-01T11:25:02.020Z,-1.72
2022-12-01T11:27:51.240Z,-1.79
2022-12-01T11:30:25.244Z,-2.06
2022-12-01T11:33:04.432Z,-2.30
2022-12-01T11:35:35.233Z,-2.56
2022-12-01T11:38:28.867Z,-2.73
2022-12-01T11:40:58.626Z,-2.71
2022-12-01T11:43:32.941Z,-2.91
2022-12-01T11:46:10.521Z,-2.99
2022-12-01T11:48:38.231Z,-3.09
2022-12-01T11:51:20.071Z,-3.03
2022-12-01T11:53:49.861Z,-3.05
2022-12-01T11:56:22.698Z,-3.08
2022-12-01T11:58:56.855Z,-3.16
2022-12-01T12:01:46.112Z,-3.21
2022-12-01T12:04:21.418Z,-3.26
2022-12-01T12:07:13.621Z,-3.36
2022-12-01T12:09:56.276Z,-3.45
2022-12-01T12:12:50.708Z,-3.50
2022-12-01T12:16:05.115Z,-3.84
2022-12-01T12:19:01.787Z,-3.84
2022-12-01T12:21:44.193Z,-3.85
2022-12-01T12:24:38.184Z,-4.19
2022-12-01T12:27:08.092Z,-4.36
2022-12-01T12:29:53.253Z,-4.42
2022-12-01T12:32:23.056Z,-4.53
2022-12-01T12:35:24.528Z,-4.59
2022-12-01T12:37:57.377Z,-4.63
2022-12-01T12:40:33.401Z,-4.72
2022-12-01T12:43:23.110Z,-4.82
2022-12-01T12:46:11.100Z,-4.81
2022-12-01T12:49:18.659Z,-4.89
2022-12-01T12:52:08.982Z,-4.99
2022-12-01T12:54:46.497Z,-5.01
2022-12-01T12:57:36.932Z,-4.99
2022-12-01T13:00:17.106Z,-4.97
2022-12-01T13:02:50.782Z,-5.00
2022-12-01T13:05:34.114Z,-5.00
2022-12-01T13:08:04.096Z,-5.03
2022-12-01T13:10:44.939Z,-5.20
2022-12-01T13:13:15.537Z,-5.29
2022-12-01T13:15:44.572Z,-5.33
2022-12-01T13:18:29.711Z,-5.38
2022-12-01T13:20:58.741Z,-5.49
2022-12-01T13:23:27.155Z,-5.70
2022-12-01T13:25:57.623Z,-5.78
2022-12-01T13:28:29.468Z,-5.80
2022-12-01T13:31:04.802Z,-5.63
2022-12-01T13:33:33.679Z,-5.56
2022-12-01T13:36:38.176Z,-5.56
2022-12-01T13:39:01.851Z,-5.53
2022-12-01T13:41:40.357Z,-5.47
2022-12-01T13:44:18.549Z,-5.41
2022-12-01T13:46:47.883Z,-5.36
2022-12-01T13:49:40.804Z,-5.48
2022-12-01T13:52:23.385Z,-5.52
2022-12-01T13:55:14.434Z,-5.43
2022-12-01T13:58:09.854Z,-5.75
2022-12-01T14:00:37.378Z,-5.71
2022-12-01T14:03:19.842Z,-5.64
2022-12-01T14:05:53.681Z,-5.59
2022-12-01T14:08:29.553Z,-5.56
2022-12-01T14:11:26.893Z,-5.51
2022-12-01T14:14:26.053Z,-5.49
2022-12-01T14:16:58.780Z,-5.48
2022-12-01T14:19:47.161Z,-5.41
2022-12-01T14:23:00.088Z,-5.41
2022-12-01T14:25:30.729Z,-5.52
2022-12-01T14:28:16.037Z,-5.75
2022-12-01T14:30:46.121Z,-5.61
2022-12-01T14:34:15.740Z,-5.66
2022-12-01T14:37:03.407Z,-5.72
2022-12-01T14:39:45.983Z,-5.44
2022-12-01T14:42:51.930Z,-5.36
2022-12-01T14:45:27.715Z,-5.34
2022-12-01T14:48:26.059Z,-5.20
2022-12-01T14:51:28.537Z,-5.39
2022-12-01T14:54:11.457Z,-5.29
2022-12-01T14:56:43.898Z,-5.61
2022-12-01T14:59:27.658Z,-5.54
2022-12-01T15:02:17.478Z,-5.63
2022-12-01T15:05:12.227Z,-5.62
2022-12-01T15:07:46.593Z,-5.83
2022-12-01T15:10:27.857Z,-5.68
2022-12-01T15:12:58.268Z,-5.75
2022-12-01T15:15:53.632Z,-5.73
2022-12-01T15:18:54.240Z,-5.78
2022-12-01T15:21:26.025Z,-5.90
2022-12-01T15:24:00.033Z,-6.05
2022-12-01T15:30:59.714Z,-6.03
2022-12-01T15:33:37.217Z,-6.01
2022-12-01T15:36:13.072Z,-6.00
2022-12-01T15:38:53.419Z,-6.04
2022-12-01T15:41:30.958Z,-5.94
2022-12-01T15:44:05.568Z,-6.04
2022-12-01T15:46:34.927Z,-6.15
2022-12-01T15:49:16.235Z,-6.14
2022-12-01T15:51:43.675Z,-6.21
2022-12-01T15:54:28.762Z,-6.21
2022-12-01T15:56:59.168Z,-6.28
2022-12-01T15:59:37.539Z,-6.45
2022-12-01T16:02:12.751Z,-6.71
2022-12-01T16:04:40.559Z,-6.68
2022-12-01T16:07:11.297Z,-6.77
2022-12-01T16:09:50.806Z,-6.80
2022-12-01T16:12:27.722Z,-7.02
2022-12-01T16:15:00.810Z,-6.89
2022-12-01T16:17:40.752Z,-7.01
2022-12-01T16:20:18.710Z,-7.00
2022-12-01T16:22:47.866Z,-7.15
2022-12-01T16:25:27.748Z,-7.20
2022-12-01T16:27:56.843Z,-7.33
2022-12-01T16:30:29.944Z,-7.34
2022-12-01T16:33:17.870Z,-7.29
2022-12-01T16:35:45.549Z,-7.26
2022-12-01T16:38:22.906Z,-7.14
2022-12-01T16:40:55.904Z,-7.30
2022-12-01T16:43:26.752Z,-7.35
2022-12-01T16:46:03.401Z,-7.30
2022-12-01T16:48:31.820Z,-7.34
2022-12-01T16:51:03.927Z,-7.47
2022-12-01T16:53:34.286Z,-7.66
2022-12-01T16:56:03.580Z,-7.55
2022-12-01T16:58:31.305Z,-7.52
2022-12-01T17:01:01.320Z,-7.43
2022-12-01T17:03:36.066Z,-7.37
2022-12-01T17:06:49.375Z,-7.36
2022-12-01T17:09:16.510Z,-7.21
2022-12-01T17:11:43.939Z,-7.14
2022-12-01T17:14:23.711Z,-7.36
2022-12-01T17:17:12.072Z,-7.30
2022-12-01T17:19:47.571Z,-7.16
2022-12-01T17:22:38.429Z,-7.28
2022-12-01T17:25:08.967Z,-7.29
2022-12-01T17:27:37.892Z,-7.25
2022-12-01T17:30:45.219Z,-7.66
2022-12-01T17:38:07.779Z,-7.59
2022-12-01T17:41:25.844Z,-7.77
2022-12-01T17:44:05.831Z,-7.78
2022-12-01T17:46:33.211Z,-7.75
2022-12-01T17:49:01.530Z,-7.72
2022-12-01T17:51:47.519Z,-7.80
2022-12-01T17:54:15.121Z,-7.92
2022-12-01T17:56:43.541Z,-7.83
2022-12-01T17:59:18.990Z,-7.85
2022-12-01T18:01:54.361Z,-7.94
2022-12-01T18:04:26.356Z,-7.87
2022-12-01T18:06:54.562Z,-7.88
2022-12-01T18:09:22.004Z,-7.97
2022-12-01T18:11:49.630Z,-7.82
2022-12-01T18:14:18.005Z,-7.81
2022-12-01T18:21:19.572Z,-7.90
2022-12-01T18:24:02.932Z,-7.79
2022-12-01T18:26:33.042Z,-7.70
2022-12-01T18:29:08.887Z,-7.62
2022-12-01T18:31:40.313Z,-7.56
2022-12-01T18:34:09.144Z,-7.52
2022-12-01T18:36:39.103Z,-7.52
2022-12-01T18:39:08.289Z,-7.50
2022-12-01T18:46:23.062Z,-7.33
2022-12-01T18:50:18.256Z,-7.29
2022-12-01T18:52:54.269Z,-7.53
2022-12-01T18:55:21.390Z,-7.47
2022-12-01T18:57:48.604Z,-7.42
2022-12-01T19:00:51.217Z,-7.34
2022-12-01T19:07:48.705Z,-7.39
2022-12-01T19:10:16.174Z,-7.30
2022-12-01T19:12:43.486Z,-7.22
2022-12-01T19:15:17.098Z,-7.27
2022-12-01T19:17:44.571Z,-7.18
2022-12-01T19:20:14.475Z,-7.08
2022-12-01T19:22:41.509Z,-7.07
2022-12-01T19:25:13.775Z,-7.06
2022-12-01T19:27:41.049Z,-7.11
2022-12-01T19:30:09.875Z,-7.11
2022-12-01T19:32:37.330Z,-7.09
2022-12-01T19:35:05.118Z,-7.10
2022-12-01T19:37:32.605Z,-7.06
2022-12-01T19:39:59.741Z,-7.01
2022-12-01T19:42:26.771Z,-7.01
2022-12-01T19:44:53.807Z,-6.96
2022-12-01T19:47:23.957Z,-6.99
2022-12-01T19:49:53.764Z,-7.05
2022-12-01T19:52:23.441Z,-7.09
2022-12-01T19:54:51.356Z,-7.15
2022-12-01T19:57:29.314Z,-7.29
2022-12-01T20:00:07.968Z,-7.30
2022-12-01T20:02:47.919Z,-7.28
2022-12-01T20:05:27.677Z,-7.27
2022-12-01T20:07:58.024Z,-7.43
2022-12-01T20:10:31.560Z,-7.36
2022-12-01T20:12:59.489Z,-7.46
2022-12-01T20:15:26.868Z,-7.47
2022-12-01T20:17:54.253Z,-7.61
2022-12-01T20:20:22.821Z,-7.69
2022-12-01T20:22:49.943Z,-7.93
2022-12-01T20:29:49.572Z,-7.72
2022-12-01T20:32:21.990Z,-7.75
2022-12-01T20:34:52.169Z,-7.71
2022-12-01T20:37:19.643Z,-7.69
2022-12-01T20:39:47.604Z,-7.66
2022-12-01T20:42:15.080Z,-7.81
2022-12-01T20:44:42.202Z,-7.78
2022-12-01T20:47:09.273Z,-7.67
2022-12-01T20:49:36.283Z,-7.73
2022-12-01T20:52:03.674Z,-7.69
2022-12-01T20:54:31.523Z,-7.75
2022-12-01T20:57:28.350Z,-7.51
2022-12-01T20:59:55.416Z,-7.57
2022-12-01T21:02:22.630Z,-7.57
2022-12-01T21:04:49.964Z,-7.68
2022-12-01T21:07:18.101Z,-7.72
2022-12-01T21:09:47.624Z,-7.66
2022-12-01T21:12:36.537Z,-7.74
2022-12-01T21:15:17.922Z,-7.54
2022-12-01T21:17:55.484Z,-7.60
2022-12-01T21:20:36.081Z,-7.50
2022-12-01T21:23:11.791Z,-7.46
2022-12-01T21:25:48.273Z,-7.31
2022-12-01T21:28:24.261Z,-7.34
2022-12-01T21:31:14.817Z,-7.26
2022-12-01T21:33:43.221Z,-7.25
2022-12-01T21:36:22.407Z,-7.39
2022-12-01T21:38:57.532Z,-7.44
2022-12-01T21:41:27.504Z,-7.45
2022-12-01T21:44:09.232Z,-7.42
2022-12-01T21:46:39.004Z,-7.39
2022-12-01T21:49:12.944Z,-7.31
2022-12-01T21:51:39.923Z,-7.37
2022-12-01T21:54:14.247Z,-7.52
2022-12-01T21:56:44.256Z,-7.57
2022-12-01T21:59:22.473Z,-7.60
2022-12-01T22:01:54.139Z,-7.62
2022-12-01T22:04:25.809Z,-7.62
2022-12-01T22:11:18.897Z,-7.72
2022-12-01T22:14:05.125Z,-7.75
2022-12-01T22:16:36.543Z,-7.72
2022-12-01T22:19:29.249Z,-7.81
2022-12-01T22:22:12.036Z,-7.69
2022-12-01T22:24:42.414Z,-7.80
2022-12-01T22:27:30.079Z,-7.91
2022-12-01T22:30:06.742Z,-7.82
2022-12-01T22:32:59.552Z,-7.80
2022-12-01T22:35:48.507Z,-7.79
2022-12-01T22:38:33.938Z,-7.72
2022-12-01T22:41:06.904Z,-7.74
2022-12-01T22:44:02.237Z,-7.88
2022-12-01T22:46:32.323Z,-8.00
2022-12-01T22:49:13.972Z,-7.85
2022-12-01T22:51:49.017Z,-7.86
2022-12-01T22:54:15.968Z,-7.75
2022-12-01T23:01:24.894Z,-7.70
2022-12-01T23:04:21.382Z,-7.68
2022-12-01T23:06:56.139Z,-7.60
2022-12-01T23:09:27.574Z,-7.56
2022-12-01T23:12:23.650Z,-7.60
2022-12-01T23:14:53.940Z,-7.80
2022-12-01T23:17:30.286Z,-7.82
2022-12-01T23:20:28.213Z,-7.85
2022-12-01T23:22:57.398Z,-7.94
2022-12-01T23:25:28.181Z,-7.98
2022-12-01T23:27:59.426Z,-8.16
2022-12-01T23:30:26.614Z,-8.20
2022-12-01T23:33:06.743Z,-8.26
2022-12-01T23:36:00.413Z,-8.31
2022-12-01T23:38:48.111Z,-8.49
2022-12-01T23:41:31.162Z,-8.53
2022-12-01T23:44:00.777Z,-8.57
2022-12-01T23:46:28.492Z,-8.47
2022-12-01T23:49:03.738Z,-8.41
2022-12-01T23:52:02.355Z,-8.26
2022-12-01T23:54:34.900Z,-8.18
2022-12-01T23:57:10.642Z,-8.18
2022-12-01T23:59:38.452Z,-8.19
